createdAt,value
2023-03-02T00:01:40.360Z,4.76
2023-03-02T00:04:07.991Z,4.76
2023-03-02T00:06:35.125Z,4.80
2023-03-02T00:09:01.566Z,4.85
2023-03-02T00:11:28.685Z,4.88
2023-03-02T00:13:54.733Z,4.85
2023-03-02T00:16:20.978Z,4.84
2023-03-02T00:18:47.139Z,4.63
2023-03-02T00:21:13.449Z,4.64
2023-03-02T00:23:39.526Z,4.63
2023-03-02T00:26:05.756Z,4.70
2023-03-02T00:28:32.491Z,4.86
2023-03-02T00:30:58.967Z,4.47
2023-03-02T00:33:25.282Z,4.70
2023-03-02T00:35:51.400Z,4.77
2023-03-02T00:38:17.497Z,3.52
2023-03-02T00:40:48.665Z,4.19
2023-03-02T00:43:15.498Z,4.01
2023-03-02T00:45:41.584Z,4.36
2023-03-02T00:48:08.747Z,4.69
2023-03-02T00:50:40.448Z,4.87
2023-03-02T00:53:08.481Z,4.82
2023-03-02T00:55:35.505Z,4.85
2023-03-02T00:58:02.076Z,4.79
2023-03-02T01:00:28.398Z,4.86
2023-03-02T01:02:55.036Z,4.83
2023-03-02T01:05:21.279Z,2.46
2023-03-02T01:07:47.391Z,3.82
2023-03-02T01:10:13.974Z,4.28
2023-03-02T01:12:40.202Z,4.34
2023-03-02T01:15:07.803Z,4.63
2023-03-02T01:17:33.974Z,4.65
2023-03-02T01:20:00.225Z,4.62
2023-03-02T01:22:26.553Z,4.48
2023-03-02T01:24:52.717Z,4.50
2023-03-02T01:27:19.547Z,4.59
2023-03-02T01:29:45.631Z,4.56
2023-03-02T01:32:11.812Z,2.57
2023-03-02T01:34:37.946Z,4.57
2023-03-02T01:37:04.105Z,3.81
2023-03-02T01:39:30.221Z,4.68
2023-03-02T01:41:56.287Z,4.61
2023-03-02T01:44:43.781Z,4.52
2023-03-02T01:47:17.980Z,3.58
2023-03-02T01:49:48.920Z,4.15
2023-03-02T01:52:15.511Z,2.62
2023-03-02T01:54:42.268Z,2.34
2023-03-02T01:57:09.408Z,2.85
2023-03-02T01:59:37.775Z,2.84
2023-03-02T02:02:06.543Z,3.14
2023-03-02T02:04:36.875Z,3.27
2023-03-02T02:07:05.308Z,3.57
2023-03-02T02:09:43.903Z,3.94
2023-03-02T02:12:15.048Z,3.82
2023-03-02T02:14:41.674Z,3.06
2023-03-02T02:17:07.803Z,3.26
2023-03-02T02:19:43.272Z,3.85
2023-03-02T02:22:10.061Z,4.24
2023-03-02T02:24:46.135Z,3.60
2023-03-02T02:27:12.625Z,3.96
2023-03-02T02:29:45.821Z,3.44
2023-03-02T02:32:14.848Z,3.28
2023-03-02T02:34:46.044Z,3.38
2023-03-02T02:37:18.809Z,4.14
2023-03-02T02:39:46.564Z,4.16
2023-03-02T02:42:40.788Z,4.22
2023-03-02T02:45:18.724Z,4.16
2023-03-02T02:47:44.952Z,3.90
2023-03-02T02:50:18.640Z,4.25
2023-03-02T02:52:47.888Z,4.33
2023-03-02T02:55:15.919Z,4.39
2023-03-02T02:57:42.099Z,4.33
2023-03-02T03:00:18.121Z,4.29
2023-03-02T03:02:48.610Z,4.30
2023-03-02T03:05:15.846Z,3.45
2023-03-02T03:07:42.289Z,2.97
2023-03-02T03:10:27.923Z,2.86
2023-03-02T03:12:54.845Z,3.27
2023-03-02T03:15:21.130Z,3.94
2023-03-02T03:17:55.453Z,3.09
2023-03-02T03:20:22.268Z,3.71
2023-03-02T03:22:48.341Z,3.91
2023-03-02T03:25:14.744Z,3.85
2023-03-02T03:27:44.927Z,4.00
2023-03-02T03:30:13.365Z,3.96
2023-03-02T03:32:40.408Z,3.93
2023-03-02T03:35:10.188Z,4.00
2023-03-02T03:37:38.029Z,3.66
2023-03-02T03:40:05.755Z,2.42
2023-03-02T03:42:31.927Z,3.18
2023-03-02T03:44:58.146Z,3.36
2023-03-02T03:47:24.288Z,3.23
2023-03-02T03:49:50.342Z,4.08
2023-03-02T03:52:16.578Z,3.15
2023-03-02T03:54:42.656Z,4.10
2023-03-02T03:57:11.352Z,3.97
2023-03-02T03:59:37.463Z,3.71
2023-03-02T04:02:03.563Z,3.27
2023-03-02T04:04:33.864Z,3.15
2023-03-02T04:07:00.227Z,3.33
2023-03-02T04:09:26.826Z,2.82
2023-03-02T04:11:56.325Z,3.45
2023-03-02T04:14:23.359Z,3.60
2023-03-02T04:16:50.372Z,3.46
2023-03-02T04:19:16.920Z,3.76
2023-03-02T04:21:46.941Z,3.57
2023-03-02T04:24:13.944Z,3.76
2023-03-02T04:26:41.349Z,2.30
2023-03-02T04:29:08.264Z,3.10
2023-03-02T04:31:34.907Z,3.48
2023-03-02T04:34:03.410Z,2.73
2023-03-02T04:36:31.872Z,3.33
2023-03-02T04:38:58.905Z,2.34
2023-03-02T04:41:25.012Z,3.29
2023-03-02T04:43:51.884Z,2.29
2023-03-02T04:46:21.285Z,2.56
2023-03-02T04:48:47.403Z,2.20
2023-03-02T04:51:18.430Z,2.40
2023-03-02T04:53:44.538Z,3.10
2023-03-02T04:56:10.602Z,3.15
2023-03-02T04:58:36.730Z,2.83
2023-03-02T05:01:02.990Z,3.54
2023-03-02T05:03:29.164Z,3.06
2023-03-02T05:05:56.477Z,3.05
2023-03-02T05:08:23.697Z,3.52
2023-03-02T05:10:49.791Z,2.28
2023-03-02T05:13:15.914Z,2.54
2023-03-02T05:15:42.788Z,3.13
2023-03-02T05:18:11.125Z,2.38
2023-03-02T05:20:38.016Z,2.20
2023-03-02T05:23:06.703Z,3.26
2023-03-02T05:25:34.794Z,3.48
2023-03-02T05:28:01.473Z,3.86
2023-03-02T05:30:27.972Z,3.81
2023-03-02T05:32:54.385Z,3.87
2023-03-02T05:35:21.751Z,2.91
2023-03-02T05:37:48.083Z,2.77
2023-03-02T05:40:18.544Z,2.94
2023-03-02T05:42:45.160Z,2.23
2023-03-02T05:45:20.920Z,3.25
2023-03-02T05:47:47.407Z,3.00
2023-03-02T05:50:13.880Z,2.29
2023-03-02T05:52:39.980Z,3.01
2023-03-02T05:55:06.755Z,3.37
2023-03-02T05:57:33.846Z,2.96
2023-03-02T05:59:59.906Z,3.61
2023-03-02T06:02:26.011Z,3.83
2023-03-02T06:04:52.093Z,3.56
2023-03-02T06:07:18.199Z,2.82
2023-03-02T06:09:44.309Z,2.94
2023-03-02T06:12:10.357Z,3.82
2023-03-02T06:14:36.421Z,2.14
2023-03-02T06:17:02.497Z,3.66
2023-03-02T06:19:28.580Z,3.96
2023-03-02T06:21:54.714Z,2.98
2023-03-02T06:24:20.840Z,2.35
2023-03-02T06:26:46.934Z,1.59
2023-03-02T06:29:13.357Z,2.77
2023-03-02T06:31:39.602Z,3.53
2023-03-02T06:34:06.065Z,3.57
2023-03-02T06:36:32.547Z,3.03
2023-03-02T06:38:59.012Z,3.97
2023-03-02T06:41:25.226Z,4.19
2023-03-02T06:43:51.285Z,4.13
2023-03-02T06:46:17.427Z,4.34
2023-03-02T06:48:43.534Z,4.31
2023-03-02T06:51:09.760Z,4.19
2023-03-02T06:53:35.987Z,4.26
2023-03-02T06:56:02.090Z,4.19
2023-03-02T06:58:28.232Z,4.56
2023-03-02T07:01:08.285Z,4.48
2023-03-02T07:03:35.538Z,4.55
2023-03-02T07:06:02.621Z,4.75
2023-03-02T07:08:28.833Z,4.59
2023-03-02T07:10:54.956Z,4.64
2023-03-02T07:13:21.170Z,3.98
2023-03-02T07:15:47.328Z,4.37
2023-03-02T07:18:13.462Z,4.67
2023-03-02T07:20:39.555Z,4.32
2023-03-02T07:23:06.099Z,4.31
2023-03-02T07:25:32.570Z,3.96
2023-03-02T07:27:58.698Z,5.14
2023-03-02T07:30:25.148Z,4.21
2023-03-02T07:32:51.394Z,4.44
2023-03-02T07:35:18.204Z,4.19
2023-03-02T07:37:44.444Z,4.80
2023-03-02T07:40:11.809Z,4.12
2023-03-02T07:42:38.497Z,4.34
2023-03-02T07:45:05.851Z,5.57
2023-03-02T07:47:32.305Z,5.78
2023-03-02T07:49:58.375Z,5.76
2023-03-02T07:52:24.519Z,5.54
2023-03-02T07:54:50.684Z,6.04
2023-03-02T07:57:17.473Z,6.00
2023-03-02T07:59:43.755Z,6.14
2023-03-02T08:02:15.249Z,6.44
2023-03-02T08:04:42.228Z,6.05
2023-03-02T08:07:08.463Z,6.80
2023-03-02T08:09:34.738Z,6.81
2023-03-02T08:12:00.904Z,6.54
2023-03-02T08:14:27.078Z,7.36
2023-03-02T08:16:53.154Z,7.16
2023-03-02T08:19:19.472Z,4.81
2023-03-02T08:21:45.613Z,6.61
2023-03-02T08:24:12.105Z,6.10
2023-03-02T08:26:38.382Z,6.15
2023-03-02T08:29:05.248Z,5.46
2023-03-02T08:31:31.937Z,7.61
2023-03-02T08:33:58.850Z,6.92
2023-03-02T08:36:25.314Z,5.01
2023-03-02T08:38:51.744Z,6.80
2023-03-02T08:41:20.333Z,6.30
2023-03-02T08:43:47.344Z,7.19
2023-03-02T08:46:15.439Z,7.03
2023-03-02T08:48:41.788Z,7.61
2023-03-02T08:51:14.390Z,6.93
2023-03-02T08:53:42.917Z,8.03
2023-03-02T08:56:38.851Z,7.40
2023-03-02T08:59:07.220Z,7.48
2023-03-02T09:01:35.708Z,7.70
2023-03-02T09:04:04.240Z,7.18
2023-03-02T09:06:32.312Z,7.52
2023-03-02T09:08:58.562Z,7.70
2023-03-02T09:11:25.145Z,7.90
2023-03-02T09:13:51.370Z,6.66
2023-03-02T09:16:20.543Z,6.26
2023-03-02T09:18:47.304Z,8.15
2023-03-02T09:21:13.593Z,7.18
2023-03-02T09:23:39.781Z,7.47
2023-03-02T09:26:05.976Z,8.16
2023-03-02T09:28:32.214Z,8.04
2023-03-02T09:31:03.020Z,7.57
2023-03-02T09:33:29.640Z,7.91
2023-03-02T09:35:55.848Z,8.72
2023-03-02T09:38:22.357Z,7.61
2023-03-02T09:41:13.519Z,8.71
2023-03-02T09:44:03.854Z,8.18
2023-03-02T09:46:35.511Z,8.88
2023-03-02T09:49:13.890Z,9.42
2023-03-02T09:51:54.840Z,9.45
2023-03-02T09:54:24.553Z,9.03
2023-03-02T09:56:56.908Z,9.37
2023-03-02T09:59:32.523Z,8.64
2023-03-02T10:02:10.808Z,9.06
2023-03-02T10:04:45.096Z,9.40
2023-03-02T10:07:13.726Z,10.05
2023-03-02T10:09:40.269Z,8.43
2023-03-02T10:12:38.945Z,9.05
2023-03-02T10:15:07.930Z,8.97
2023-03-02T10:17:52.100Z,9.37
2023-03-02T10:20:34.376Z,9.37
2023-03-02T10:23:27.817Z,10.05
2023-03-02T10:26:04.808Z,10.84
2023-03-02T10:28:38.029Z,8.98
2023-03-02T10:31:11.650Z,10.82
2023-03-02T10:33:38.918Z,10.67
2023-03-02T10:36:14.640Z,10.16
2023-03-02T10:38:40.774Z,10.31
2023-03-02T10:41:09.868Z,9.56
2023-03-02T10:43:39.793Z,10.02
2023-03-02T10:46:08.714Z,9.22
2023-03-02T10:48:52.814Z,10.20
2023-03-02T10:51:34.532Z,9.42
2023-03-02T10:54:13.888Z,10.93
2023-03-02T10:56:47.976Z,10.73
2023-03-02T10:59:32.284Z,9.48
2023-03-02T11:01:59.698Z,10.72
2023-03-02T11:04:26.009Z,10.00
2023-03-02T11:06:54.425Z,9.97
2023-03-02T11:09:21.014Z,9.91
2023-03-02T11:11:56.035Z,11.51
2023-03-02T11:14:24.910Z,10.16
2023-03-02T11:16:52.093Z,10.49
2023-03-02T11:19:25.498Z,10.00
2023-03-02T11:22:27.589Z,10.41
2023-03-02T11:24:55.663Z,9.98
2023-03-02T11:27:26.011Z,11.59
2023-03-02T11:29:58.082Z,11.97
2023-03-02T11:32:41.470Z,10.68
2023-03-02T11:35:14.872Z,10.34
2023-03-02T11:37:52.247Z,10.90
2023-03-02T11:40:20.599Z,11.59
2023-03-02T11:42:46.835Z,11.87
2023-03-02T11:45:13.058Z,12.85
2023-03-02T11:47:43.239Z,12.90
2023-03-02T11:50:12.143Z,10.77
2023-03-02T11:52:41.885Z,12.92
2023-03-02T11:55:21.961Z,12.58
2023-03-02T11:58:06.600Z,11.80
2023-03-02T12:00:38.672Z,12.69
2023-03-02T12:03:30.880Z,11.36
2023-03-02T12:06:21.392Z,11.02
2023-03-02T12:09:30.224Z,11.53
2023-03-02T12:12:17.178Z,12.68
2023-03-02T12:14:43.583Z,12.46
2023-03-02T12:17:32.214Z,12.26
2023-03-02T12:20:07.635Z,11.81
2023-03-02T12:22:34.641Z,13.16
2023-03-02T12:25:19.305Z,13.47
2023-03-02T12:27:50.704Z,11.50
2023-03-02T12:30:22.752Z,12.91
2023-03-02T12:33:21.136Z,11.88
2023-03-02T12:35:50.175Z,11.76
2023-03-02T12:38:34.233Z,11.20
2023-03-02T12:41:13.149Z,13.59
2023-03-02T12:43:57.274Z,13.45
2023-03-02T12:46:34.733Z,13.83
2023-03-02T12:49:08.071Z,12.07
2023-03-02T12:51:49.901Z,11.64
2023-03-02T12:54:19.447Z,13.24
2023-03-02T12:56:46.306Z,11.79
2023-03-02T12:59:30.493Z,11.33
2023-03-02T13:02:25.901Z,11.55
2023-03-02T13:04:53.213Z,12.45
2023-03-02T13:07:22.878Z,11.19
2023-03-02T13:09:56.284Z,12.45
2023-03-02T13:12:26.116Z,11.60
2023-03-02T13:14:55.847Z,11.78
2023-03-02T13:17:25.593Z,12.98
2023-03-02T13:19:51.858Z,12.61
2023-03-02T13:22:19.379Z,12.80
2023-03-02T13:25:02.885Z,12.59
2023-03-02T13:27:30.059Z,12.49
2023-03-02T13:30:11.063Z,12.66
2023-03-02T13:32:42.496Z,12.70
2023-03-02T13:35:22.690Z,12.81
2023-03-02T13:38:05.362Z,13.96
2023-03-02T13:40:44.036Z,13.60
2023-03-02T13:43:21.472Z,13.41
2023-03-02T13:46:01.632Z,13.05
2023-03-02T13:48:28.423Z,13.05
2023-03-02T13:51:15.141Z,11.96
2023-03-02T13:53:45.784Z,12.32
2023-03-02T13:56:16.110Z,12.67
2023-03-02T13:58:42.212Z,13.38
2023-03-02T14:01:10.703Z,12.67
2023-03-02T14:03:36.913Z,11.47
2023-03-02T14:06:05.257Z,11.83
2023-03-02T14:08:31.759Z,12.90
2023-03-02T14:11:00.318Z,12.57
2023-03-02T14:13:34.511Z,12.70
2023-03-02T14:16:00.716Z,13.51
2023-03-02T14:18:39.933Z,12.75
2023-03-02T14:21:11.404Z,12.86
2023-03-02T14:23:40.370Z,13.53
2023-03-02T14:26:31.307Z,12.90
2023-03-02T14:29:05.914Z,13.42
2023-03-02T14:31:33.286Z,11.69
2023-03-02T14:33:59.539Z,11.58
2023-03-02T14:36:31.889Z,11.05
2023-03-02T14:39:00.242Z,11.17
2023-03-02T14:41:27.366Z,11.48
2023-03-02T14:43:53.603Z,11.56
2023-03-02T14:46:19.725Z,11.97
2023-03-02T14:48:45.938Z,12.50
2023-03-02T14:51:21.630Z,10.81
2023-03-02T14:53:49.908Z,11.08
2023-03-02T14:56:18.568Z,11.37
2023-03-02T14:58:44.820Z,11.21
2023-03-02T15:01:11.706Z,11.37
2023-03-02T15:03:37.873Z,10.64
2023-03-02T15:06:05.545Z,11.03
2023-03-02T15:08:31.647Z,10.86
2023-03-02T15:10:57.826Z,10.76
2023-03-02T15:13:23.943Z,10.75
2023-03-02T15:15:51.966Z,10.96
2023-03-02T15:18:18.961Z,10.94
2023-03-02T15:20:45.055Z,10.83
2023-03-02T15:23:11.140Z,10.61
2023-03-02T15:25:37.280Z,10.71
2023-03-02T15:28:03.508Z,10.58
2023-03-02T15:30:29.857Z,10.20
2023-03-02T15:32:59.060Z,10.45
2023-03-02T15:35:27.109Z,10.87
2023-03-02T15:37:53.620Z,10.90
2023-03-02T15:40:20.025Z,10.16
2023-03-02T15:42:47.204Z,10.26
2023-03-02T15:45:13.509Z,9.63
2023-03-02T15:47:39.622Z,10.25
2023-03-02T15:50:06.015Z,10.07
2023-03-02T15:52:32.223Z,10.17
2023-03-02T15:54:58.283Z,10.19
2023-03-02T15:57:24.412Z,9.58
2023-03-02T15:59:50.579Z,9.40
2023-03-02T16:02:16.826Z,9.52
2023-03-02T16:04:43.056Z,9.40
2023-03-02T16:07:09.142Z,9.17
2023-03-02T16:09:35.206Z,9.50
2023-03-02T16:12:01.346Z,9.41
2023-03-02T16:14:27.680Z,9.58
2023-03-02T16:16:53.899Z,9.87
2023-03-02T16:19:20.125Z,9.81
2023-03-02T16:21:47.255Z,9.86
2023-03-02T16:24:15.427Z,9.32
2023-03-02T16:26:41.864Z,9.57
2023-03-02T16:29:08.024Z,9.85
2023-03-02T16:31:37.079Z,10.31
2023-03-02T16:34:06.936Z,9.42
2023-03-02T16:36:34.669Z,8.75
2023-03-02T16:39:00.744Z,9.80
2023-03-02T16:41:26.962Z,9.66
2023-03-02T16:43:55.667Z,9.64
2023-03-02T16:46:23.992Z,9.56
2023-03-02T16:48:50.590Z,9.62
2023-03-02T16:51:17.912Z,8.89
2023-03-02T16:53:44.241Z,8.96
2023-03-02T16:56:11.262Z,9.38
2023-03-02T16:58:39.094Z,9.67
2023-03-02T17:01:07.145Z,9.70
2023-03-02T17:03:33.780Z,9.77
2023-03-02T17:06:00.742Z,9.19
2023-03-02T17:08:26.838Z,9.70
2023-03-02T17:10:52.908Z,9.96
2023-03-02T17:13:19.156Z,9.95
2023-03-02T17:15:45.271Z,9.98
2023-03-02T17:18:11.414Z,9.89
2023-03-02T17:20:37.694Z,9.30
2023-03-02T17:23:04.215Z,9.83
2023-03-02T17:25:30.298Z,9.48
2023-03-02T17:27:56.493Z,9.72
2023-03-02T17:30:22.635Z,10.08
2023-03-02T17:32:48.917Z,10.00
2023-03-02T17:35:15.197Z,9.94
2023-03-02T17:37:41.910Z,9.97
2023-03-02T17:40:12.295Z,9.87
2023-03-02T17:42:39.321Z,9.84
2023-03-02T17:45:06.330Z,9.67
2023-03-02T17:47:33.151Z,9.75
2023-03-02T17:49:59.357Z,9.28
2023-03-02T17:52:25.544Z,9.22
2023-03-02T17:54:54.018Z,9.57
2023-03-02T17:57:21.915Z,7.70
2023-03-02T17:59:50.880Z,8.98
2023-03-02T18:02:18.188Z,8.80
2023-03-02T18:04:45.295Z,9.39
2023-03-02T18:07:12.255Z,9.37
2023-03-02T18:09:38.492Z,8.89
2023-03-02T18:12:04.999Z,9.44
2023-03-02T18:14:31.113Z,9.37
2023-03-02T18:16:57.234Z,8.97
2023-03-02T18:19:23.336Z,9.33
2023-03-02T18:21:49.443Z,9.16
2023-03-02T18:24:15.546Z,9.08
2023-03-02T18:26:41.748Z,8.90
2023-03-02T18:29:07.837Z,9.02
2023-03-02T18:31:34.160Z,8.91
2023-03-02T18:34:01.183Z,9.10
2023-03-02T18:36:27.375Z,9.14
2023-03-02T18:38:53.811Z,7.27
2023-03-02T18:41:22.152Z,7.66
2023-03-02T18:43:48.560Z,8.50
2023-03-02T18:46:25.898Z,7.89
2023-03-02T18:48:53.183Z,7.46
2023-03-02T18:51:20.251Z,6.46
2023-03-02T18:53:47.129Z,7.10
2023-03-02T18:56:13.300Z,6.12
2023-03-02T18:58:39.986Z,6.66
2023-03-02T19:01:06.568Z,7.19
2023-03-02T19:03:35.357Z,7.51
2023-03-02T19:06:01.868Z,6.15
2023-03-02T19:08:28.162Z,7.70
2023-03-02T19:10:54.876Z,7.23
2023-03-02T19:13:21.787Z,7.19
2023-03-02T19:15:47.877Z,7.24
2023-03-02T19:18:15.912Z,7.13
2023-03-02T19:20:44.602Z,6.53
2023-03-02T19:23:10.923Z,8.05
2023-03-02T19:25:38.011Z,7.71
2023-03-02T19:28:04.808Z,7.56
2023-03-02T19:30:31.235Z,7.51
2023-03-02T19:32:57.280Z,7.36
2023-03-02T19:35:26.418Z,6.03
2023-03-02T19:37:52.632Z,7.42
2023-03-02T19:40:20.517Z,7.52
2023-03-02T19:42:47.127Z,5.94
2023-03-02T19:45:17.477Z,7.46
2023-03-02T19:47:44.676Z,7.28
2023-03-02T19:50:11.737Z,6.79
2023-03-02T19:52:37.985Z,6.76
2023-03-02T19:55:11.823Z,7.51
2023-03-02T19:57:39.194Z,7.43
2023-03-02T20:00:09.081Z,7.51
2023-03-02T20:02:36.422Z,7.51
2023-03-02T20:05:03.371Z,7.48
2023-03-02T20:07:29.533Z,6.37
2023-03-02T20:09:55.665Z,7.09
2023-03-02T20:12:21.761Z,6.88
2023-03-02T20:14:52.205Z,7.09
2023-03-02T20:17:18.998Z,6.59
2023-03-02T20:19:46.249Z,6.65
2023-03-02T20:22:12.955Z,6.50
2023-03-02T20:24:39.671Z,5.91
2023-03-02T20:27:06.205Z,6.71
2023-03-02T20:29:36.422Z,7.00
2023-03-02T20:32:05.456Z,6.12
2023-03-02T20:34:31.698Z,6.82
2023-03-02T20:36:58.136Z,6.94
2023-03-02T20:39:28.119Z,6.14
2023-03-02T20:41:54.584Z,5.94
2023-03-02T20:44:22.520Z,5.79
2023-03-02T20:46:53.228Z,5.58
2023-03-02T20:49:21.269Z,6.15
2023-03-02T20:51:53.948Z,5.73
2023-03-02T20:54:22.309Z,6.17
2023-03-02T20:56:48.762Z,5.31
2023-03-02T20:59:15.124Z,6.01
2023-03-02T21:01:42.271Z,6.14
2023-03-02T21:04:08.411Z,6.36
2023-03-02T21:06:34.525Z,6.45
2023-03-02T21:09:02.171Z,5.77
2023-03-02T21:11:29.082Z,5.76
2023-03-02T21:13:55.986Z,5.70
2023-03-02T21:16:25.497Z,5.25
2023-03-02T21:18:52.030Z,4.88
2023-03-02T21:21:19.234Z,5.77
2023-03-02T21:23:46.648Z,5.94
2023-03-02T21:26:14.348Z,5.96
2023-03-02T21:28:44.122Z,5.98
2023-03-02T21:31:11.472Z,6.00
2023-03-02T21:33:37.772Z,6.13
2023-03-02T21:36:04.454Z,6.15
2023-03-02T21:38:30.675Z,6.28
2023-03-02T21:40:57.970Z,6.38
2023-03-02T21:43:24.262Z,6.36
2023-03-02T21:45:50.424Z,6.26
2023-03-02T21:48:16.796Z,5.82
2023-03-02T21:50:42.998Z,6.32
2023-03-02T21:53:09.123Z,6.36
2023-03-02T21:55:35.369Z,6.32
2023-03-02T21:58:01.635Z,6.18
2023-03-02T22:00:33.802Z,6.07
2023-03-02T22:03:00.552Z,5.94
2023-03-02T22:05:26.903Z,5.87
2023-03-02T22:07:53.463Z,6.15
2023-03-02T22:10:49.881Z,6.10
2023-03-02T22:13:17.278Z,6.21
2023-03-02T22:15:44.768Z,6.03
2023-03-02T22:18:12.428Z,6.10
2023-03-02T22:20:41.431Z,5.46
2023-03-02T22:23:12.616Z,6.03
2023-03-02T22:25:39.031Z,5.99
2023-03-02T22:28:16.587Z,5.73
2023-03-02T22:30:43.012Z,6.12
2023-03-02T22:33:20.537Z,5.29
2023-03-02T22:35:48.178Z,5.53
2023-03-02T22:38:25.387Z,5.92
2023-03-02T22:40:53.128Z,5.79
2023-03-02T22:43:25.412Z,5.93
2023-03-02T22:45:52.692Z,5.18
2023-03-02T22:48:21.124Z,5.27
2023-03-02T22:50:48.511Z,5.54
2023-03-02T22:53:31.268Z,5.94
2023-03-02T22:56:00.030Z,6.04
2023-03-02T22:58:44.595Z,6.17
2023-03-02T23:01:25.409Z,6.02
2023-03-02T23:04:02.462Z,5.20
2023-03-02T23:06:31.080Z,5.76
2023-03-02T23:08:59.749Z,5.02
2023-03-02T23:11:27.185Z,5.70
2023-03-02T23:13:53.575Z,4.59
2023-03-02T23:16:21.750Z,4.67
2023-03-02T23:18:49.089Z,5.37
2023-03-02T23:21:28.133Z,5.26
2023-03-02T23:23:54.900Z,5.52
2023-03-02T23:26:21.095Z,5.17
2023-03-02T23:28:48.567Z,4.82
2023-03-02T23:31:15.587Z,4.79
2023-03-02T23:33:41.748Z,4.74
2023-03-02T23:36:08.540Z,4.51
2023-03-02T23:38:34.699Z,4.91
2023-03-02T23:41:00.804Z,4.27
2023-03-02T23:43:26.944Z,5.04
2023-03-02T23:45:53.223Z,4.27
2023-03-02T23:48:19.372Z,3.93
2023-03-02T23:50:45.809Z,4.64
2023-03-02T23:53:12.796Z,4.51
2023-03-02T23:55:40.676Z,4.32
2023-03-02T23:58:07.010Z,3.27
